sensor_id;sensor_type;location;lat;lon;timestamp;P1;durP1;ratioP1;P2;durP2;ratioP2
5787;SDS011;2920;48.158;12.254;2022-12-10T00:01:12;18.77;;;7.38;;
5787;SDS011;2920;48.158;12.254;2022-12-10T00:03:38;20.40;;;8.23;;
5787;SDS011;2920;48.158;12.254;2022-12-10T00:06:05;27.60;;;11.13;;
5787;SDS011;2920;48.158;12.254;2022-12-10T00:08:31;19.92;;;9.32;;
5787;SDS011;2920;48.158;12.254;2022-12-10T00:10:58;22.20;;;9.90;;
5787;SDS011;2920;48.158;12.254;2022-12-10T00:13:24;19.40;;;9.48;;
5787;SDS011;2920;48.158;12.254;2022-12-10T00:15:49;32.00;;;12.00;;
5787;SDS011;2920;48.158;12.254;2022-12-10T00:18:14;20.98;;;9.18;;
5787;SDS011;2920;48.158;12.254;2022-12-10T00:20:40;24.45;;;10.70;;
5787;SDS011;2920;48.158;12.254;2022-12-10T00:23:05;29.73;;;11.95;;
5787;SDS011;2920;48.158;12.254;2022-12-10T00:25:31;29.67;;;12.20;;
5787;SDS011;2920;48.158;12.254;2022-12-10T00:27:57;30.08;;;12.70;;
5787;SDS011;2920;48.158;12.254;2022-12-10T00:30:22;29.42;;;12.45;;
5787;SDS011;2920;48.158;12.254;2022-12-10T00:32:47;30.10;;;12.98;;
5787;SDS011;2920;48.158;12.254;2022-12-10T00:35:13;35.20;;;14.50;;
5787;SDS011;2920;48.158;12.254;2022-12-10T00:37:38;27.42;;;12.65;;
5787;SDS011;2920;48.158;12.254;2022-12-10T00:40:03;34.15;;;13.70;;
5787;SDS011;2920;48.158;12.254;2022-12-10T00:42:29;15.65;;;8.60;;
5787;SDS011;2920;48.158;12.254;2022-12-10T00:44:55;27.33;;;10.25;;
5787;SDS011;2920;48.158;12.254;2022-12-10T00:47:20;22.63;;;9.10;;
5787;SDS011;2920;48.158;12.254;2022-12-10T00:49:45;22.05;;;9.70;;
5787;SDS011;2920;48.158;12.254;2022-12-10T00:52:11;24.67;;;10.27;;
5787;SDS011;2920;48.158;12.254;2022-12-10T00:54:36;15.00;;;7.22;;
5787;SDS011;2920;48.158;12.254;2022-12-10T00:57:01;24.55;;;9.73;;
5787;SDS011;2920;48.158;12.254;2022-12-10T00:59:27;16.85;;;8.55;;
5787;SDS011;2920;48.158;12.254;2022-12-10T01:01:52;34.25;;;13.02;;
5787;SDS011;2920;48.158;12.254;2022-12-10T01:04:17;35.00;;;13.27;;
5787;SDS011;2920;48.158;12.254;2022-12-10T01:09:14;28.80;;;11.18;;
5787;SDS011;2920;48.158;12.254;2022-12-10T01:11:41;24.92;;;10.85;;
5787;SDS011;2920;48.158;12.254;2022-12-10T01:14:09;35.00;;;13.75;;
5787;SDS011;2920;48.158;12.254;2022-12-10T01:16:36;19.65;;;8.38;;
5787;SDS011;2920;48.158;12.254;2022-12-10T01:19:03;19.63;;;9.27;;
5787;SDS011;2920;48.158;12.254;2022-12-10T01:21:28;27.63;;;11.90;;
5787;SDS011;2920;48.158;12.254;2022-12-10T01:23:54;27.15;;;10.30;;
5787;SDS011;2920;48.158;12.254;2022-12-10T01:26:21;20.88;;;9.05;;
5787;SDS011;2920;48.158;12.254;2022-12-10T01:28:50;22.33;;;8.57;;
5787;SDS011;2920;48.158;12.254;2022-12-10T01:31:17;21.95;;;9.43;;
5787;SDS011;2920;48.158;12.254;2022-12-10T01:33:49;21.77;;;9.70;;
5787;SDS011;2920;48.158;12.254;2022-12-10T01:36:15;15.05;;;6.80;;
5787;SDS011;2920;48.158;12.254;2022-12-10T01:38:43;32.95;;;12.07;;
5787;SDS011;2920;48.158;12.254;2022-12-10T01:41:13;32.63;;;12.80;;
5787;SDS011;2920;48.158;12.254;2022-12-10T01:46:21;43.70;;;15.27;;
5787;SDS011;2920;48.158;12.254;2022-12-10T01:48:51;33.45;;;14.95;;
5787;SDS011;2920;48.158;12.254;2022-12-10T01:51:17;26.90;;;9.60;;
5787;SDS011;2920;48.158;12.254;2022-12-10T01:53:42;24.08;;;10.55;;
5787;SDS011;2920;48.158;12.254;2022-12-10T01:56:12;39.63;;;13.15;;
5787;SDS011;2920;48.158;12.254;2022-12-10T01:58:38;27.13;;;10.38;;
5787;SDS011;2920;48.158;12.254;2022-12-10T02:03:42;31.55;;;11.38;;
5787;SDS011;2920;48.158;12.254;2022-12-10T02:09:00;39.28;;;13.57;;
5787;SDS011;2920;48.158;12.254;2022-12-10T02:11:48;41.75;;;14.45;;
5787;SDS011;2920;48.158;12.254;2022-12-10T02:17:12;33.53;;;12.82;;
5787;SDS011;2920;48.158;12.254;2022-12-10T02:22:11;25.63;;;11.93;;
5787;SDS011;2920;48.158;12.254;2022-12-10T02:24:37;33.42;;;11.63;;
5787;SDS011;2920;48.158;12.254;2022-12-10T02:27:06;30.42;;;11.32;;
5787;SDS011;2920;48.158;12.254;2022-12-10T02:29:35;33.72;;;11.43;;
5787;SDS011;2920;48.158;12.254;2022-12-10T02:32:03;36.20;;;13.02;;
5787;SDS011;2920;48.158;12.254;2022-12-10T02:34:41;20.80;;;9.10;;
5787;SDS011;2920;48.158;12.254;2022-12-10T02:37:12;30.83;;;10.40;;
5787;SDS011;2920;48.158;12.254;2022-12-10T02:39:41;21.33;;;9.20;;
5787;SDS011;2920;48.158;12.254;2022-12-10T02:42:10;34.40;;;14.32;;
5787;SDS011;2920;48.158;12.254;2022-12-10T02:44:37;38.72;;;13.73;;
5787;SDS011;2920;48.158;12.254;2022-12-10T02:47:05;29.90;;;11.07;;
5787;SDS011;2920;48.158;12.254;2022-12-10T02:49:31;35.85;;;14.43;;
5787;SDS011;2920;48.158;12.254;2022-12-10T02:51:57;30.02;;;11.32;;
5787;SDS011;2920;48.158;12.254;2022-12-10T02:54:33;23.38;;;9.45;;
5787;SDS011;2920;48.158;12.254;2022-12-10T03:00:23;23.25;;;9.68;;
5787;SDS011;2920;48.158;12.254;2022-12-10T03:05:19;22.38;;;8.88;;
5787;SDS011;2920;48.158;12.254;2022-12-10T03:07:55;17.60;;;7.50;;
5787;SDS011;2920;48.158;12.254;2022-12-10T03:10:25;17.85;;;6.82;;
5787;SDS011;2920;48.158;12.254;2022-12-10T03:12:57;30.23;;;10.85;;
5787;SDS011;2920;48.158;12.254;2022-12-10T03:15:24;23.60;;;9.55;;
5787;SDS011;2920;48.158;12.254;2022-12-10T03:17:51;24.40;;;10.07;;
5787;SDS011;2920;48.158;12.254;2022-12-10T03:20:17;30.20;;;10.73;;
5787;SDS011;2920;48.158;12.254;2022-12-10T03:22:46;29.30;;;10.55;;
5787;SDS011;2920;48.158;12.254;2022-12-10T03:25:13;26.75;;;9.65;;
5787;SDS011;2920;48.158;12.254;2022-12-10T03:27:42;20.20;;;8.63;;
5787;SDS011;2920;48.158;12.254;2022-12-10T03:30:08;21.60;;;8.88;;
5787;SDS011;2920;48.158;12.254;2022-12-10T03:32:34;24.42;;;9.57;;
5787;SDS011;2920;48.158;12.254;2022-12-10T03:34:59;25.05;;;8.70;;
5787;SDS011;2920;48.158;12.254;2022-12-10T03:37:26;20.92;;;8.07;;
5787;SDS011;2920;48.158;12.254;2022-12-10T03:39:52;12.73;;;6.22;;
5787;SDS011;2920;48.158;12.254;2022-12-10T03:42:18;26.33;;;10.32;;
5787;SDS011;2920;48.158;12.254;2022-12-10T03:44:43;19.17;;;8.13;;
5787;SDS011;2920;48.158;12.254;2022-12-10T03:47:10;27.88;;;10.10;;
5787;SDS011;2920;48.158;12.254;2022-12-10T03:49:37;17.90;;;7.97;;
5787;SDS011;2920;48.158;12.254;2022-12-10T03:52:03;20.35;;;7.85;;
5787;SDS011;2920;48.158;12.254;2022-12-10T03:54:28;21.00;;;8.05;;
5787;SDS011;2920;48.158;12.254;2022-12-10T03:56:54;16.98;;;7.10;;
5787;SDS011;2920;48.158;12.254;2022-12-10T03:59:19;19.92;;;8.20;;
5787;SDS011;2920;48.158;12.254;2022-12-10T04:01:44;13.15;;;6.25;;
5787;SDS011;2920;48.158;12.254;2022-12-10T04:04:10;28.25;;;10.88;;
5787;SDS011;2920;48.158;12.254;2022-12-10T04:06:37;17.60;;;7.38;;
5787;SDS011;2920;48.158;12.254;2022-12-10T04:09:03;22.27;;;8.98;;
5787;SDS011;2920;48.158;12.254;2022-12-10T04:11:28;19.73;;;7.85;;
5787;SDS011;2920;48.158;12.254;2022-12-10T04:13:54;18.63;;;8.00;;
5787;SDS011;2920;48.158;12.254;2022-12-10T04:16:37;19.48;;;8.25;;
5787;SDS011;2920;48.158;12.254;2022-12-10T04:19:05;13.23;;;5.65;;
5787;SDS011;2920;48.158;12.254;2022-12-10T04:21:32;18.65;;;7.85;;
5787;SDS011;2920;48.158;12.254;2022-12-10T04:24:18;28.00;;;10.77;;
5787;SDS011;2920;48.158;12.254;2022-12-10T04:27:05;23.88;;;9.43;;
5787;SDS011;2920;48.158;12.254;2022-12-10T04:29:33;19.98;;;8.82;;
5787;SDS011;2920;48.158;12.254;2022-12-10T04:31:58;12.60;;;5.63;;
5787;SDS011;2920;48.158;12.254;2022-12-10T04:34:24;10.60;;;5.13;;
5787;SDS011;2920;48.158;12.254;2022-12-10T04:36:50;18.17;;;7.57;;
5787;SDS011;2920;48.158;12.254;2022-12-10T04:39:16;14.68;;;6.18;;
5787;SDS011;2920;48.158;12.254;2022-12-10T04:41:42;19.90;;;9.32;;
5787;SDS011;2920;48.158;12.254;2022-12-10T04:44:09;28.05;;;10.90;;
5787;SDS011;2920;48.158;12.254;2022-12-10T04:46:35;33.67;;;11.38;;
5787;SDS011;2920;48.158;12.254;2022-12-10T04:49:00;26.52;;;10.20;;
5787;SDS011;2920;48.158;12.254;2022-12-10T04:51:26;29.70;;;12.10;;
5787;SDS011;2920;48.158;12.254;2022-12-10T04:53:51;30.48;;;10.82;;
5787;SDS011;2920;48.158;12.254;2022-12-10T04:56:17;15.57;;;7.25;;
5787;SDS011;2920;48.158;12.254;2022-12-10T04:58:42;20.35;;;9.88;;
5787;SDS011;2920;48.158;12.254;2022-12-10T05:01:08;15.70;;;6.90;;
5787;SDS011;2920;48.158;12.254;2022-12-10T05:03:35;33.42;;;11.82;;
5787;SDS011;2920;48.158;12.254;2022-12-10T05:06:01;33.13;;;13.20;;
5787;SDS011;2920;48.158;12.254;2022-12-10T05:08:27;29.77;;;11.05;;
5787;SDS011;2920;48.158;12.254;2022-12-10T05:10:53;22.70;;;8.77;;
5787;SDS011;2920;48.158;12.254;2022-12-10T05:13:18;32.08;;;13.07;;
5787;SDS011;2920;48.158;12.254;2022-12-10T05:15:43;33.40;;;14.35;;
5787;SDS011;2920;48.158;12.254;2022-12-10T05:18:09;32.63;;;12.57;;
5787;SDS011;2920;48.158;12.254;2022-12-10T05:20:34;34.30;;;13.65;;
5787;SDS011;2920;48.158;12.254;2022-12-10T05:22:59;31.77;;;12.15;;
5787;SDS011;2920;48.158;12.254;2022-12-10T05:25:43;28.40;;;10.68;;
5787;SDS011;2920;48.158;12.254;2022-12-10T05:28:20;27.75;;;11.57;;
5787;SDS011;2920;48.158;12.254;2022-12-10T05:30:47;31.50;;;12.25;;
5787;SDS011;2920;48.158;12.254;2022-12-10T05:33:12;25.92;;;10.82;;
5787;SDS011;2920;48.158;12.254;2022-12-10T05:35:37;31.35;;;12.25;;
5787;SDS011;2920;48.158;12.254;2022-12-10T05:38:03;30.90;;;12.48;;
5787;SDS011;2920;48.158;12.254;2022-12-10T05:40:28;31.02;;;11.68;;
5787;SDS011;2920;48.158;12.254;2022-12-10T05:42:53;31.52;;;11.95;;
5787;SDS011;2920;48.158;12.254;2022-12-10T05:45:19;29.65;;;11.20;;
5787;SDS011;2920;48.158;12.254;2022-12-10T05:47:44;24.80;;;10.35;;
5787;SDS011;2920;48.158;12.254;2022-12-10T05:50:09;36.35;;;12.93;;
5787;SDS011;2920;48.158;12.254;2022-12-10T05:52:35;29.85;;;11.85;;
5787;SDS011;2920;48.158;12.254;2022-12-10T05:55:00;35.83;;;14.45;;
5787;SDS011;2920;48.158;12.254;2022-12-10T05:57:25;35.38;;;13.88;;
5787;SDS011;2920;48.158;12.254;2022-12-10T05:59:51;36.35;;;13.05;;
5787;SDS011;2920;48.158;12.254;2022-12-10T06:02:16;21.77;;;10.60;;
5787;SDS011;2920;48.158;12.254;2022-12-10T06:04:42;36.38;;;12.93;;
5787;SDS011;2920;48.158;12.254;2022-12-10T06:07:07;34.88;;;15.00;;
5787;SDS011;2920;48.158;12.254;2022-12-10T06:09:32;27.25;;;11.02;;
5787;SDS011;2920;48.158;12.254;2022-12-10T06:11:58;30.38;;;14.30;;
5787;SDS011;2920;48.158;12.254;2022-12-10T06:14:23;32.63;;;13.65;;
5787;SDS011;2920;48.158;12.254;2022-12-10T06:16:48;28.42;;;11.10;;
5787;SDS011;2920;48.158;12.254;2022-12-10T06:19:13;38.72;;;17.10;;
5787;SDS011;2920;48.158;12.254;2022-12-10T06:21:39;34.45;;;16.80;;
5787;SDS011;2920;48.158;12.254;2022-12-10T06:24:04;32.47;;;14.48;;
5787;SDS011;2920;48.158;12.254;2022-12-10T06:26:30;22.65;;;10.25;;
5787;SDS011;2920;48.158;12.254;2022-12-10T06:28:55;31.88;;;13.93;;
5787;SDS011;2920;48.158;12.254;2022-12-10T06:31:20;30.73;;;14.20;;
5787;SDS011;2920;48.158;12.254;2022-12-10T06:33:46;30.83;;;14.52;;
5787;SDS011;2920;48.158;12.254;2022-12-10T06:36:12;34.20;;;14.88;;
5787;SDS011;2920;48.158;12.254;2022-12-10T06:38:39;29.02;;;14.30;;
5787;SDS011;2920;48.158;12.254;2022-12-10T06:41:06;28.83;;;12.55;;
5787;SDS011;2920;48.158;12.254;2022-12-10T06:43:32;31.90;;;14.90;;
5787;SDS011;2920;48.158;12.254;2022-12-10T06:45:58;21.77;;;11.80;;
5787;SDS011;2920;48.158;12.254;2022-12-10T06:48:23;26.77;;;12.15;;
5787;SDS011;2920;48.158;12.254;2022-12-10T06:50:49;34.58;;;13.95;;
5787;SDS011;2920;48.158;12.254;2022-12-10T06:53:14;26.15;;;11.60;;
5787;SDS011;2920;48.158;12.254;2022-12-10T06:55:39;35.40;;;14.55;;
5787;SDS011;2920;48.158;12.254;2022-12-10T06:58:04;27.92;;;13.43;;
5787;SDS011;2920;48.158;12.254;2022-12-10T07:00:30;23.70;;;13.00;;
5787;SDS011;2920;48.158;12.254;2022-12-10T07:02:56;31.50;;;13.77;;
5787;SDS011;2920;48.158;12.254;2022-12-10T07:05:21;28.63;;;13.75;;
5787;SDS011;2920;48.158;12.254;2022-12-10T07:07:46;33.00;;;14.68;;
5787;SDS011;2920;48.158;12.254;2022-12-10T07:10:11;26.17;;;11.63;;
5787;SDS011;2920;48.158;12.254;2022-12-10T07:12:37;34.65;;;14.25;;
5787;SDS011;2920;48.158;12.254;2022-12-10T07:15:03;31.20;;;13.73;;
5787;SDS011;2920;48.158;12.254;2022-12-10T07:17:28;25.50;;;12.23;;
5787;SDS011;2920;48.158;12.254;2022-12-10T07:19:53;33.55;;;14.65;;
5787;SDS011;2920;48.158;12.254;2022-12-10T07:22:19;33.47;;;14.52;;
5787;SDS011;2920;48.158;12.254;2022-12-10T07:24:44;32.08;;;13.95;;
5787;SDS011;2920;48.158;12.254;2022-12-10T07:27:09;30.73;;;13.63;;
5787;SDS011;2920;48.158;12.254;2022-12-10T07:29:35;29.65;;;13.18;;
5787;SDS011;2920;48.158;12.254;2022-12-10T07:32:00;32.00;;;14.25;;
5787;SDS011;2920;48.158;12.254;2022-12-10T07:34:26;29.50;;;12.82;;
5787;SDS011;2920;48.158;12.254;2022-12-10T07:36:51;30.08;;;13.30;;
5787;SDS011;2920;48.158;12.254;2022-12-10T07:39:17;30.23;;;14.05;;
5787;SDS011;2920;48.158;12.254;2022-12-10T07:41:49;27.65;;;12.10;;
5787;SDS011;2920;48.158;12.254;2022-12-10T07:44:16;26.67;;;12.00;;
5787;SDS011;2920;48.158;12.254;2022-12-10T07:46:43;24.98;;;12.18;;
5787;SDS011;2920;48.158;12.254;2022-12-10T07:49:08;30.77;;;13.35;;
5787;SDS011;2920;48.158;12.254;2022-12-10T07:51:34;25.95;;;12.43;;
5787;SDS011;2920;48.158;12.254;2022-12-10T07:53:59;28.17;;;12.13;;
5787;SDS011;2920;48.158;12.254;2022-12-10T07:56:24;31.27;;;13.60;;
5787;SDS011;2920;48.158;12.254;2022-12-10T07:58:50;23.50;;;10.48;;
5787;SDS011;2920;48.158;12.254;2022-12-10T08:01:17;36.15;;;15.07;;
5787;SDS011;2920;48.158;12.254;2022-12-10T08:03:44;24.17;;;11.30;;
5787;SDS011;2920;48.158;12.254;2022-12-10T08:06:10;22.77;;;9.82;;
5787;SDS011;2920;48.158;12.254;2022-12-10T08:08:38;27.00;;;13.07;;
5787;SDS011;2920;48.158;12.254;2022-12-10T08:11:04;34.13;;;13.70;;
5787;SDS011;2920;48.158;12.254;2022-12-10T08:13:30;31.73;;;13.70;;
5787;SDS011;2920;48.158;12.254;2022-12-10T08:16:03;22.98;;;11.32;;
5787;SDS011;2920;48.158;12.254;2022-12-10T08:18:30;21.45;;;10.32;;
5787;SDS011;2920;48.158;12.254;2022-12-10T08:20:55;30.05;;;14.73;;
5787;SDS011;2920;48.158;12.254;2022-12-10T08:23:21;32.63;;;14.70;;
5787;SDS011;2920;48.158;12.254;2022-12-10T08:25:46;26.48;;;13.38;;
5787;SDS011;2920;48.158;12.254;2022-12-10T08:28:11;31.35;;;13.60;;
5787;SDS011;2920;48.158;12.254;2022-12-10T08:30:37;23.02;;;11.70;;
5787;SDS011;2920;48.158;12.254;2022-12-10T08:33:02;24.67;;;10.90;;
5787;SDS011;2920;48.158;12.254;2022-12-10T08:35:28;23.05;;;11.57;;
5787;SDS011;2920;48.158;12.254;2022-12-10T08:37:53;22.25;;;11.50;;
5787;SDS011;2920;48.158;12.254;2022-12-10T08:40:18;22.65;;;10.10;;
5787;SDS011;2920;48.158;12.254;2022-12-10T08:42:44;23.33;;;11.52;;
5787;SDS011;2920;48.158;12.254;2022-12-10T08:45:09;33.97;;;14.80;;
5787;SDS011;2920;48.158;12.254;2022-12-10T08:47:34;31.95;;;13.48;;
5787;SDS011;2920;48.158;12.254;2022-12-10T08:50:00;36.42;;;18.42;;
5787;SDS011;2920;48.158;12.254;2022-12-10T08:52:25;40.22;;;17.52;;
5787;SDS011;2920;48.158;12.254;2022-12-10T08:54:54;32.72;;;16.48;;
5787;SDS011;2920;48.158;12.254;2022-12-10T08:57:19;26.95;;;13.35;;
5787;SDS011;2920;48.158;12.254;2022-12-10T08:59:44;33.60;;;15.60;;
5787;SDS011;2920;48.158;12.254;2022-12-10T09:02:10;20.88;;;10.55;;
5787;SDS011;2920;48.158;12.254;2022-12-10T09:04:35;28.38;;;12.05;;
5787;SDS011;2920;48.158;12.254;2022-12-10T09:07:00;21.52;;;10.85;;
5787;SDS011;2920;48.158;12.254;2022-12-10T09:09:26;27.58;;;11.18;;
5787;SDS011;2920;48.158;12.254;2022-12-10T09:11:52;27.98;;;13.93;;
5787;SDS011;2920;48.158;12.254;2022-12-10T09:14:17;30.40;;;14.63;;
5787;SDS011;2920;48.158;12.254;2022-12-10T09:16:42;26.58;;;13.90;;
5787;SDS011;2920;48.158;12.254;2022-12-10T09:19:08;31.48;;;14.35;;
5787;SDS011;2920;48.158;12.254;2022-12-10T09:21:34;27.45;;;12.85;;
5787;SDS011;2920;48.158;12.254;2022-12-10T09:24:00;21.42;;;11.10;;
5787;SDS011;2920;48.158;12.254;2022-12-10T09:26:25;20.95;;;9.73;;
5787;SDS011;2920;48.158;12.254;2022-12-10T09:28:51;23.30;;;9.13;;
5787;SDS011;2920;48.158;12.254;2022-12-10T09:31:18;24.73;;;12.10;;
5787;SDS011;2920;48.158;12.254;2022-12-10T09:33:45;25.33;;;10.75;;
5787;SDS011;2920;48.158;12.254;2022-12-10T09:36:11;22.30;;;9.93;;
5787;SDS011;2920;48.158;12.254;2022-12-10T09:38:38;16.60;;;7.97;;
5787;SDS011;2920;48.158;12.254;2022-12-10T09:41:12;23.23;;;10.93;;
5787;SDS011;2920;48.158;12.254;2022-12-10T09:46:22;22.60;;;10.25;;
5787;SDS011;2920;48.158;12.254;2022-12-10T09:51:38;25.45;;;11.52;;
5787;SDS011;2920;48.158;12.254;2022-12-10T09:54:08;25.73;;;12.13;;
5787;SDS011;2920;48.158;12.254;2022-12-10T09:56:43;27.73;;;12.98;;
5787;SDS011;2920;48.158;12.254;2022-12-10T09:59:17;28.88;;;12.88;;
5787;SDS011;2920;48.158;12.254;2022-12-10T10:01:45;24.00;;;12.05;;
5787;SDS011;2920;48.158;12.254;2022-12-10T10:04:12;26.05;;;12.10;;
5787;SDS011;2920;48.158;12.254;2022-12-10T10:06:38;21.83;;;9.00;;
5787;SDS011;2920;48.158;12.254;2022-12-10T10:09:05;18.60;;;9.07;;
5787;SDS011;2920;48.158;12.254;2022-12-10T10:11:32;19.75;;;8.85;;
5787;SDS011;2920;48.158;12.254;2022-12-10T10:13:59;30.30;;;13.18;;
5787;SDS011;2920;48.158;12.254;2022-12-10T10:21:32;23.77;;;12.25;;
5787;SDS011;2920;48.158;12.254;2022-12-10T10:24:03;19.27;;;9.48;;
5787;SDS011;2920;48.158;12.254;2022-12-10T10:26:29;26.08;;;12.38;;
5787;SDS011;2920;48.158;12.254;2022-12-10T10:29:02;22.17;;;11.35;;
5787;SDS011;2920;48.158;12.254;2022-12-10T10:31:30;21.95;;;9.68;;
5787;SDS011;2920;48.158;12.254;2022-12-10T10:33:59;28.80;;;13.70;;
5787;SDS011;2920;48.158;12.254;2022-12-10T10:36:30;20.00;;;8.80;;
5787;SDS011;2920;48.158;12.254;2022-12-10T10:39:06;23.40;;;10.82;;
5787;SDS011;2920;48.158;12.254;2022-12-10T10:41:35;20.73;;;10.55;;
5787;SDS011;2920;48.158;12.254;2022-12-10T10:44:04;29.13;;;12.27;;
5787;SDS011;2920;48.158;12.254;2022-12-10T10:46:29;27.80;;;13.63;;
5787;SDS011;2920;48.158;12.254;2022-12-10T10:49:33;23.55;;;12.20;;
5787;SDS011;2920;48.158;12.254;2022-12-10T10:51:53;31.52;;;12.73;;
5787;SDS011;2920;48.158;12.254;2022-12-10T10:54:34;18.45;;;9.32;;
5787;SDS011;2920;48.158;12.254;2022-12-10T10:57:12;26.38;;;11.40;;
5787;SDS011;2920;48.158;12.254;2022-12-10T10:59:42;26.00;;;11.93;;
5787;SDS011;2920;48.158;12.254;2022-12-10T11:02:25;19.40;;;10.07;;
5787;SDS011;2920;48.158;12.254;2022-12-10T11:04:54;36.13;;;15.95;;
5787;SDS011;2920;48.158;12.254;2022-12-10T11:09:52;34.58;;;15.77;;
5787;SDS011;2920;48.158;12.254;2022-12-10T11:12:40;36.97;;;14.73;;
5787;SDS011;2920;48.158;12.254;2022-12-10T11:17:50;26.38;;;12.20;;
5787;SDS011;2920;48.158;12.254;2022-12-10T11:22:53;30.35;;;13.95;;
5787;SDS011;2920;48.158;12.254;2022-12-10T11:25:32;23.63;;;10.85;;
5787;SDS011;2920;48.158;12.254;2022-12-10T11:31:05;23.17;;;10.40;;
5787;SDS011;2920;48.158;12.254;2022-12-10T11:34:09;33.00;;;13.77;;
5787;SDS011;2920;48.158;12.254;2022-12-10T11:36:59;27.48;;;13.18;;
5787;SDS011;2920;48.158;12.254;2022-12-10T11:42:08;22.20;;;10.82;;
5787;SDS011;2920;48.158;12.254;2022-12-10T11:55:13;28.27;;;13.27;;
5787;SDS011;2920;48.158;12.254;2022-12-10T12:00:18;25.10;;;10.10;;
5787;SDS011;2920;48.158;12.254;2022-12-10T12:13:33;26.40;;;12.90;;
5787;SDS011;2920;48.158;12.254;2022-12-10T12:16:04;24.73;;;12.10;;
5787;SDS011;2920;48.158;12.254;2022-12-10T12:21:13;25.20;;;11.38;;
5787;SDS011;2920;48.158;12.254;2022-12-10T12:26:26;21.10;;;10.32;;
5787;SDS011;2920;48.158;12.254;2022-12-10T12:31:48;27.33;;;12.48;;
5787;SDS011;2920;48.158;12.254;2022-12-10T12:34:55;28.83;;;12.63;;
5787;SDS011;2920;48.158;12.254;2022-12-10T12:37:26;27.58;;;13.18;;
5787;SDS011;2920;48.158;12.254;2022-12-10T12:40:00;31.17;;;12.98;;
5787;SDS011;2920;48.158;12.254;2022-12-10T12:42:29;35.45;;;14.52;;
5787;SDS011;2920;48.158;12.254;2022-12-10T12:53:19;32.13;;;13.63;;
5787;SDS011;2920;48.158;12.254;2022-12-10T13:00:42;66.47;;;27.25;;
5787;SDS011;2920;48.158;12.254;2022-12-10T13:05:53;48.17;;;19.90;;
5787;SDS011;2920;48.158;12.254;2022-12-10T13:10:45;44.50;;;17.45;;
5787;SDS011;2920;48.158;12.254;2022-12-10T13:13:28;43.33;;;17.73;;
5787;SDS011;2920;48.158;12.254;2022-12-10T13:15:56;51.38;;;21.60;;
5787;SDS011;2920;48.158;12.254;2022-12-10T13:22:11;31.40;;;13.75;;
5787;SDS011;2920;48.158;12.254;2022-12-10T13:32:45;32.47;;;13.55;;
5787;SDS011;2920;48.158;12.254;2022-12-10T13:43:25;37.25;;;15.18;;
5787;SDS011;2920;48.158;12.254;2022-12-10T13:48:46;33.00;;;15.07;;
5787;SDS011;2920;48.158;12.254;2022-12-10T13:53:40;33.15;;;13.77;;
5787;SDS011;2920;48.158;12.254;2022-12-10T13:56:21;30.58;;;13.98;;
5787;SDS011;2920;48.158;12.254;2022-12-10T14:01:41;39.33;;;16.42;;
5787;SDS011;2920;48.158;12.254;2022-12-10T14:04:18;31.17;;;14.35;;
5787;SDS011;2920;48.158;12.254;2022-12-10T14:07:06;32.00;;;13.10;;
5787;SDS011;2920;48.158;12.254;2022-12-10T14:09:34;33.25;;;14.27;;
5787;SDS011;2920;48.158;12.254;2022-12-10T14:12:08;30.33;;;12.32;;
5787;SDS011;2920;48.158;12.254;2022-12-10T14:14:38;39.13;;;16.77;;
5787;SDS011;2920;48.158;12.254;2022-12-10T14:17:10;38.17;;;13.98;;
5787;SDS011;2920;48.158;12.254;2022-12-10T14:19:37;35.33;;;14.40;;
5787;SDS011;2920;48.158;12.254;2022-12-10T14:22:06;41.38;;;16.23;;
5787;SDS011;2920;48.158;12.254;2022-12-10T14:24:37;40.08;;;16.17;;
5787;SDS011;2920;48.158;12.254;2022-12-10T14:27:13;43.45;;;17.70;;
5787;SDS011;2920;48.158;12.254;2022-12-10T14:29:53;43.10;;;18.15;;
5787;SDS011;2920;48.158;12.254;2022-12-10T14:32:37;38.22;;;16.00;;
5787;SDS011;2920;48.158;12.254;2022-12-10T14:35:03;36.35;;;17.67;;
5787;SDS011;2920;48.158;12.254;2022-12-10T14:37:31;40.67;;;16.65;;
5787;SDS011;2920;48.158;12.254;2022-12-10T14:39:59;40.50;;;18.80;;
5787;SDS011;2920;48.158;12.254;2022-12-10T14:42:25;45.72;;;17.80;;
5787;SDS011;2920;48.158;12.254;2022-12-10T14:44:54;41.88;;;16.02;;
5787;SDS011;2920;48.158;12.254;2022-12-10T14:47:22;39.25;;;16.30;;
5787;SDS011;2920;48.158;12.254;2022-12-10T14:49:49;39.70;;;17.30;;
5787;SDS011;2920;48.158;12.254;2022-12-10T14:52:24;45.03;;;17.98;;
5787;SDS011;2920;48.158;12.254;2022-12-10T14:54:57;36.95;;;16.65;;
5787;SDS011;2920;48.158;12.254;2022-12-10T14:57:24;40.70;;;16.25;;
5787;SDS011;2920;48.158;12.254;2022-12-10T15:00:05;45.15;;;17.10;;
5787;SDS011;2920;48.158;12.254;2022-12-10T15:02:35;42.80;;;17.67;;
5787;SDS011;2920;48.158;12.254;2022-12-10T15:05:02;33.83;;;15.48;;
5787;SDS011;2920;48.158;12.254;2022-12-10T15:07:32;36.28;;;15.88;;
5787;SDS011;2920;48.158;12.254;2022-12-10T15:10:03;37.28;;;15.98;;
5787;SDS011;2920;48.158;12.254;2022-12-10T15:14:59;43.25;;;15.02;;
5787;SDS011;2920;48.158;12.254;2022-12-10T15:17:32;44.67;;;17.55;;
5787;SDS011;2920;48.158;12.254;2022-12-10T15:20:03;36.22;;;18.50;;
5787;SDS011;2920;48.158;12.254;2022-12-10T15:22:35;42.20;;;18.13;;
5787;SDS011;2920;48.158;12.254;2022-12-10T15:25:09;39.75;;;15.90;;
5787;SDS011;2920;48.158;12.254;2022-12-10T15:27:51;46.90;;;16.33;;
5787;SDS011;2920;48.158;12.254;2022-12-10T15:30:21;45.60;;;17.95;;
5787;SDS011;2920;48.158;12.254;2022-12-10T15:32:57;38.67;;;17.02;;
5787;SDS011;2920;48.158;12.254;2022-12-10T15:35:22;42.28;;;16.63;;
5787;SDS011;2920;48.158;12.254;2022-12-10T15:37:48;35.33;;;16.08;;
5787;SDS011;2920;48.158;12.254;2022-12-10T15:40:23;40.33;;;15.70;;
5787;SDS011;2920;48.158;12.254;2022-12-10T15:42:49;40.30;;;17.15;;
5787;SDS011;2920;48.158;12.254;2022-12-10T15:45:21;38.72;;;15.57;;
5787;SDS011;2920;48.158;12.254;2022-12-10T15:47:51;51.28;;;21.15;;
5787;SDS011;2920;48.158;12.254;2022-12-10T15:50:16;40.97;;;16.08;;
5787;SDS011;2920;48.158;12.254;2022-12-10T15:52:42;70.53;;;26.95;;
5787;SDS011;2920;48.158;12.254;2022-12-10T15:55:10;86.57;;;31.20;;
5787;SDS011;2920;48.158;12.254;2022-12-10T15:57:38;44.38;;;17.42;;
5787;SDS011;2920;48.158;12.254;2022-12-10T16:00:13;41.08;;;17.67;;
5787;SDS011;2920;48.158;12.254;2022-12-10T16:05:19;43.63;;;16.00;;
5787;SDS011;2920;48.158;12.254;2022-12-10T16:07:56;41.72;;;16.20;;
5787;SDS011;2920;48.158;12.254;2022-12-10T16:10:24;35.63;;;15.55;;
5787;SDS011;2920;48.158;12.254;2022-12-10T16:15:30;33.63;;;13.75;;
5787;SDS011;2920;48.158;12.254;2022-12-10T16:18:00;31.13;;;15.00;;
5787;SDS011;2920;48.158;12.254;2022-12-10T16:20:26;28.08;;;12.82;;
5787;SDS011;2920;48.158;12.254;2022-12-10T16:22:54;32.83;;;13.70;;
5787;SDS011;2920;48.158;12.254;2022-12-10T16:25:20;24.95;;;11.55;;
5787;SDS011;2920;48.158;12.254;2022-12-10T16:27:46;28.58;;;13.15;;
5787;SDS011;2920;48.158;12.254;2022-12-10T16:30:22;24.73;;;10.90;;
5787;SDS011;2920;48.158;12.254;2022-12-10T16:32:50;29.30;;;11.32;;
5787;SDS011;2920;48.158;12.254;2022-12-10T16:35:16;28.10;;;11.55;;
5787;SDS011;2920;48.158;12.254;2022-12-10T16:37:45;28.33;;;12.45;;
5787;SDS011;2920;48.158;12.254;2022-12-10T16:42:37;20.23;;;9.73;;
5787;SDS011;2920;48.158;12.254;2022-12-10T16:45:09;26.35;;;10.52;;
5787;SDS011;2920;48.158;12.254;2022-12-10T16:47:37;24.65;;;10.75;;
5787;SDS011;2920;48.158;12.254;2022-12-10T16:50:03;21.88;;;10.15;;
5787;SDS011;2920;48.158;12.254;2022-12-10T16:52:28;22.80;;;10.00;;
5787;SDS011;2920;48.158;12.254;2022-12-10T16:54:54;20.52;;;10.43;;
5787;SDS011;2920;48.158;12.254;2022-12-10T16:57:19;19.63;;;9.02;;
5787;SDS011;2920;48.158;12.254;2022-12-10T16:59:44;17.05;;;8.45;;